sensor_id;sensor_type;location;lat;lon;timestamp;P1;durP1;ratioP1;P2;durP2;ratioP2
46931;SDS011;32670;51.464;11.964;2022-10-16T00:01:16;7.10;;;6.50;;
46931;SDS011;32670;51.464;11.964;2022-10-16T00:03:44;7.23;;;6.63;;
46931;SDS011;32670;51.464;11.964;2022-10-16T00:06:10;7.50;;;6.83;;
46931;SDS011;32670;51.464;11.964;2022-10-16T00:08:37;6.93;;;6.43;;
46931;SDS011;32670;51.464;11.964;2022-10-16T00:11:05;6.67;;;6.17;;
46931;SDS011;32670;51.464;11.964;2022-10-16T00:13:51;7.03;;;6.53;;
46931;SDS011;32670;51.464;11.964;2022-10-16T00:16:19;6.83;;;6.23;;
46931;SDS011;32670;51.464;11.964;2022-10-16T00:18:45;6.83;;;6.33;;
46931;SDS011;32670;51.464;11.964;2022-10-16T00:21:12;6.30;;;5.80;;
46931;SDS011;32670;51.464;11.964;2022-10-16T00:23:40;6.43;;;5.93;;
46931;SDS011;32670;51.464;11.964;2022-10-16T00:26:07;6.37;;;5.87;;
46931;SDS011;32670;51.464;11.964;2022-10-16T00:28:37;6.10;;;5.60;;
46931;SDS011;32670;51.464;11.964;2022-10-16T00:31:04;6.30;;;5.80;;
46931;SDS011;32670;51.464;11.964;2022-10-16T00:33:31;6.23;;;5.73;;
46931;SDS011;32670;51.464;11.964;2022-10-16T00:35:58;6.40;;;5.90;;
46931;SDS011;32670;51.464;11.964;2022-10-16T00:38:24;6.13;;;5.63;;
46931;SDS011;32670;51.464;11.964;2022-10-16T00:40:49;6.57;;;6.07;;
46931;SDS011;32670;51.464;11.964;2022-10-16T00:46:13;5.90;;;5.40;;
46931;SDS011;32670;51.464;11.964;2022-10-16T00:48:52;5.70;;;5.30;;
46931;SDS011;32670;51.464;11.964;2022-10-16T00:51:21;5.83;;;5.33;;
46931;SDS011;32670;51.464;11.964;2022-10-16T00:53:49;5.77;;;5.27;;
46931;SDS011;32670;51.464;11.964;2022-10-16T00:56:15;5.97;;;5.47;;
46931;SDS011;32670;51.464;11.964;2022-10-16T00:58:41;4.90;;;4.60;;
46931;SDS011;32670;51.464;11.964;2022-10-16T01:01:07;5.30;;;4.90;;
46931;SDS011;32670;51.464;11.964;2022-10-16T01:03:33;5.80;;;5.33;;
46931;SDS011;32670;51.464;11.964;2022-10-16T01:06:23;5.30;;;4.90;;
46931;SDS011;32670;51.464;11.964;2022-10-16T01:14:24;5.37;;;4.97;;
46931;SDS011;32670;51.464;11.964;2022-10-16T01:17:58;5.23;;;4.80;;
46931;SDS011;32670;51.464;11.964;2022-10-16T01:20:33;4.83;;;4.43;;
46931;SDS011;32670;51.464;11.964;2022-10-16T01:25:49;5.73;;;4.83;;
46931;SDS011;32670;51.464;11.964;2022-10-16T01:28:41;4.97;;;4.47;;
46931;SDS011;32670;51.464;11.964;2022-10-16T01:31:15;4.73;;;4.40;;
46931;SDS011;32670;51.464;11.964;2022-10-16T01:33:45;4.47;;;4.17;;
46931;SDS011;32670;51.464;11.964;2022-10-16T01:36:17;4.47;;;4.17;;
46931;SDS011;32670;51.464;11.964;2022-10-16T01:38:49;4.90;;;4.50;;
46931;SDS011;32670;51.464;11.964;2022-10-16T01:41:21;4.67;;;4.37;;
46931;SDS011;32670;51.464;11.964;2022-10-16T01:44:17;4.40;;;4.10;;
46931;SDS011;32670;51.464;11.964;2022-10-16T01:46:47;4.30;;;4.00;;
46931;SDS011;32670;51.464;11.964;2022-10-16T01:49:15;4.10;;;3.80;;
46931;SDS011;32670;51.464;11.964;2022-10-16T01:51:43;4.43;;;4.03;;
46931;SDS011;32670;51.464;11.964;2022-10-16T01:54:12;4.20;;;3.90;;
46931;SDS011;32670;51.464;11.964;2022-10-16T01:56:39;4.17;;;3.87;;
46931;SDS011;32670;51.464;11.964;2022-10-16T01:59:18;4.23;;;3.93;;
46931;SDS011;32670;51.464;11.964;2022-10-16T02:01:47;4.33;;;4.03;;
46931;SDS011;32670;51.464;11.964;2022-10-16T02:04:17;3.90;;;3.60;;
46931;SDS011;32670;51.464;11.964;2022-10-16T02:06:46;4.10;;;3.80;;
46931;SDS011;32670;51.464;11.964;2022-10-16T02:09:12;3.60;;;3.30;;
46931;SDS011;32670;51.464;11.964;2022-10-16T02:11:40;4.17;;;3.87;;
46931;SDS011;32670;51.464;11.964;2022-10-16T02:14:06;3.80;;;3.50;;
46931;SDS011;32670;51.464;11.964;2022-10-16T02:16:36;3.67;;;3.37;;
46931;SDS011;32670;51.464;11.964;2022-10-16T02:19:09;4.07;;;3.77;;
46931;SDS011;32670;51.464;11.964;2022-10-16T02:26:52;3.60;;;3.40;;
46931;SDS011;32670;51.464;11.964;2022-10-16T02:29:39;3.53;;;3.33;;
46931;SDS011;32670;51.464;11.964;2022-10-16T02:32:09;3.57;;;3.27;;
46931;SDS011;32670;51.464;11.964;2022-10-16T02:34:40;3.87;;;3.57;;
46931;SDS011;32670;51.464;11.964;2022-10-16T02:37:06;3.50;;;3.30;;
46931;SDS011;32670;51.464;11.964;2022-10-16T02:39:32;3.57;;;3.30;;
46931;SDS011;32670;51.464;11.964;2022-10-16T02:41:58;3.80;;;3.40;;
46931;SDS011;32670;51.464;11.964;2022-10-16T02:44:24;3.27;;;3.03;;
46931;SDS011;32670;51.464;11.964;2022-10-16T02:46:49;3.20;;;3.00;;
46931;SDS011;32670;51.464;11.964;2022-10-16T02:49:15;3.40;;;3.10;;
46931;SDS011;32670;51.464;11.964;2022-10-16T02:51:40;3.33;;;3.13;;
46931;SDS011;32670;51.464;11.964;2022-10-16T02:54:06;3.20;;;3.00;;
46931;SDS011;32670;51.464;11.964;2022-10-16T02:56:31;3.20;;;2.90;;
46931;SDS011;32670;51.464;11.964;2022-10-16T02:58:57;3.30;;;3.10;;
46931;SDS011;32670;51.464;11.964;2022-10-16T03:01:23;3.20;;;2.97;;
46931;SDS011;32670;51.464;11.964;2022-10-16T03:03:48;3.10;;;2.90;;
46931;SDS011;32670;51.464;11.964;2022-10-16T03:06:14;3.20;;;3.00;;
46931;SDS011;32670;51.464;11.964;2022-10-16T03:08:40;2.83;;;2.63;;
46931;SDS011;32670;51.464;11.964;2022-10-16T03:11:05;3.20;;;3.00;;
46931;SDS011;32670;51.464;11.964;2022-10-16T03:13:31;2.90;;;2.70;;
46931;SDS011;32670;51.464;11.964;2022-10-16T03:15:56;2.90;;;2.70;;
46931;SDS011;32670;51.464;11.964;2022-10-16T03:18:22;3.10;;;2.80;;
46931;SDS011;32670;51.464;11.964;2022-10-16T03:20:47;2.70;;;2.50;;
46931;SDS011;32670;51.464;11.964;2022-10-16T03:23:13;2.80;;;2.60;;
46931;SDS011;32670;51.464;11.964;2022-10-16T03:25:38;3.00;;;2.80;;
46931;SDS011;32670;51.464;11.964;2022-10-16T03:28:04;3.10;;;2.90;;
46931;SDS011;32670;51.464;11.964;2022-10-16T03:30:30;3.03;;;2.83;;
46931;SDS011;32670;51.464;11.964;2022-10-16T03:32:55;2.77;;;2.57;;
46931;SDS011;32670;51.464;11.964;2022-10-16T03:35:21;2.90;;;2.70;;
46931;SDS011;32670;51.464;11.964;2022-10-16T03:37:47;3.27;;;3.07;;
46931;SDS011;32670;51.464;11.964;2022-10-16T03:40:13;2.80;;;2.60;;
46931;SDS011;32670;51.464;11.964;2022-10-16T03:42:39;2.90;;;2.70;;
46931;SDS011;32670;51.464;11.964;2022-10-16T03:45:05;2.83;;;2.63;;
46931;SDS011;32670;51.464;11.964;2022-10-16T03:47:30;2.43;;;2.23;;
46931;SDS011;32670;51.464;11.964;2022-10-16T03:49:58;2.90;;;2.70;;
46931;SDS011;32670;51.464;11.964;2022-10-16T03:52:23;2.60;;;2.40;;
46931;SDS011;32670;51.464;11.964;2022-10-16T03:54:49;2.60;;;2.40;;
46931;SDS011;32670;51.464;11.964;2022-10-16T03:57:14;2.60;;;2.40;;
46931;SDS011;32670;51.464;11.964;2022-10-16T03:59:40;2.27;;;2.17;;
46931;SDS011;32670;51.464;11.964;2022-10-16T04:02:05;2.73;;;2.53;;
46931;SDS011;32670;51.464;11.964;2022-10-16T04:04:31;2.80;;;2.60;;
46931;SDS011;32670;51.464;11.964;2022-10-16T04:06:56;2.40;;;2.30;;
46931;SDS011;32670;51.464;11.964;2022-10-16T04:09:22;2.20;;;2.10;;
46931;SDS011;32670;51.464;11.964;2022-10-16T04:11:47;2.47;;;2.30;;
46931;SDS011;32670;51.464;11.964;2022-10-16T04:14:13;2.63;;;2.43;;
46931;SDS011;32670;51.464;11.964;2022-10-16T04:16:39;2.70;;;2.50;;
46931;SDS011;32670;51.464;11.964;2022-10-16T04:19:04;2.33;;;2.23;;
46931;SDS011;32670;51.464;11.964;2022-10-16T04:21:30;2.50;;;2.30;;
46931;SDS011;32670;51.464;11.964;2022-10-16T04:23:55;2.20;;;2.10;;
46931;SDS011;32670;51.464;11.964;2022-10-16T04:26:21;2.20;;;2.10;;
46931;SDS011;32670;51.464;11.964;2022-10-16T04:28:46;2.50;;;2.30;;
46931;SDS011;32670;51.464;11.964;2022-10-16T04:31:12;2.50;;;2.30;;
46931;SDS011;32670;51.464;11.964;2022-10-16T04:33:37;2.10;;;2.00;;
46931;SDS011;32670;51.464;11.964;2022-10-16T04:36:03;1.90;;;1.80;;
46931;SDS011;32670;51.464;11.964;2022-10-16T04:38:28;2.13;;;2.03;;
46931;SDS011;32670;51.464;11.964;2022-10-16T04:40:54;2.17;;;1.97;;
46931;SDS011;32670;51.464;11.964;2022-10-16T04:43:20;2.23;;;2.03;;
46931;SDS011;32670;51.464;11.964;2022-10-16T04:45:46;2.17;;;2.07;;
46931;SDS011;32670;51.464;11.964;2022-10-16T04:48:12;2.10;;;2.00;;
46931;SDS011;32670;51.464;11.964;2022-10-16T04:50:37;2.00;;;1.90;;
46931;SDS011;32670;51.464;11.964;2022-10-16T04:53:03;2.00;;;1.90;;
46931;SDS011;32670;51.464;11.964;2022-10-16T04:55:28;1.90;;;1.80;;
46931;SDS011;32670;51.464;11.964;2022-10-16T04:57:54;2.00;;;1.90;;
46931;SDS011;32670;51.464;11.964;2022-10-16T05:00:20;1.77;;;1.67;;
46931;SDS011;32670;51.464;11.964;2022-10-16T05:02:45;1.87;;;1.77;;
46931;SDS011;32670;51.464;11.964;2022-10-16T05:05:11;2.07;;;1.97;;
46931;SDS011;32670;51.464;11.964;2022-10-16T05:07:36;1.90;;;1.80;;
46931;SDS011;32670;51.464;11.964;2022-10-16T05:10:02;1.60;;;1.50;;
46931;SDS011;32670;51.464;11.964;2022-10-16T05:12:28;1.90;;;1.80;;
46931;SDS011;32670;51.464;11.964;2022-10-16T05:14:53;1.90;;;1.80;;
46931;SDS011;32670;51.464;11.964;2022-10-16T05:17:23;2.20;;;2.00;;
46931;SDS011;32670;51.464;11.964;2022-10-16T05:19:51;1.77;;;1.67;;
46931;SDS011;32670;51.464;11.964;2022-10-16T05:22:17;1.70;;;1.60;;
46931;SDS011;32670;51.464;11.964;2022-10-16T05:24:42;2.00;;;1.90;;
46931;SDS011;32670;51.464;11.964;2022-10-16T05:27:08;2.00;;;1.90;;
46931;SDS011;32670;51.464;11.964;2022-10-16T05:29:35;1.80;;;1.70;;
46931;SDS011;32670;51.464;11.964;2022-10-16T05:32:01;1.90;;;1.80;;
46931;SDS011;32670;51.464;11.964;2022-10-16T05:34:27;1.77;;;1.67;;
46931;SDS011;32670;51.464;11.964;2022-10-16T05:36:52;1.90;;;1.80;;
46931;SDS011;32670;51.464;11.964;2022-10-16T05:39:18;1.63;;;1.53;;
46931;SDS011;32670;51.464;11.964;2022-10-16T05:41:43;1.90;;;1.80;;
46931;SDS011;32670;51.464;11.964;2022-10-16T05:44:09;1.53;;;1.43;;
46931;SDS011;32670;51.464;11.964;2022-10-16T05:46:35;1.70;;;1.60;;
46931;SDS011;32670;51.464;11.964;2022-10-16T05:49:00;1.80;;;1.70;;
46931;SDS011;32670;51.464;11.964;2022-10-16T05:51:26;5.33;;;2.00;;
46931;SDS011;32670;51.464;11.964;2022-10-16T05:53:51;1.83;;;1.60;;
46931;SDS011;32670;51.464;11.964;2022-10-16T05:56:17;1.80;;;1.70;;
46931;SDS011;32670;51.464;11.964;2022-10-16T05:58:43;1.10;;;0.83;;
46931;SDS011;32670;51.464;11.964;2022-10-16T06:01:10;1.80;;;0.90;;
46931;SDS011;32670;51.464;11.964;2022-10-16T06:03:43;1.17;;;0.70;;
46931;SDS011;32670;51.464;11.964;2022-10-16T06:08:45;2.37;;;1.03;;
46931;SDS011;32670;51.464;11.964;2022-10-16T06:11:13;3.90;;;1.07;;
46931;SDS011;32670;51.464;11.964;2022-10-16T06:13:43;1.57;;;0.90;;
46931;SDS011;32670;51.464;11.964;2022-10-16T06:16:11;2.70;;;0.80;;
46931;SDS011;32670;51.464;11.964;2022-10-16T06:18:37;2.80;;;1.30;;
46931;SDS011;32670;51.464;11.964;2022-10-16T06:21:10;1.50;;;1.00;;
46931;SDS011;32670;51.464;11.964;2022-10-16T06:23:37;2.93;;;0.90;;
46931;SDS011;32670;51.464;11.964;2022-10-16T06:26:06;1.10;;;1.00;;
46931;SDS011;32670;51.464;11.964;2022-10-16T06:28:33;1.20;;;1.10;;
46931;SDS011;32670;51.464;11.964;2022-10-16T06:30:59;3.47;;;1.17;;
46931;SDS011;32670;51.464;11.964;2022-10-16T06:33:25;3.33;;;1.00;;
46931;SDS011;32670;51.464;11.964;2022-10-16T06:35:51;3.07;;;1.00;;
46931;SDS011;32670;51.464;11.964;2022-10-16T06:38:16;1.67;;;0.90;;
46931;SDS011;32670;51.464;11.964;2022-10-16T06:40:42;2.27;;;1.13;;
46931;SDS011;32670;51.464;11.964;2022-10-16T06:43:07;2.60;;;1.43;;
46931;SDS011;32670;51.464;11.964;2022-10-16T06:45:33;3.13;;;2.83;;
46931;SDS011;32670;51.464;11.964;2022-10-16T06:47:58;3.50;;;3.20;;
46931;SDS011;32670;51.464;11.964;2022-10-16T06:50:24;3.67;;;3.37;;
46931;SDS011;32670;51.464;11.964;2022-10-16T06:52:49;4.03;;;3.40;;
46931;SDS011;32670;51.464;11.964;2022-10-16T06:55:15;3.53;;;3.07;;
46931;SDS011;32670;51.464;11.964;2022-10-16T06:57:41;5.63;;;2.83;;
46931;SDS011;32670;51.464;11.964;2022-10-16T07:00:08;4.60;;;2.43;;
46931;SDS011;32670;51.464;11.964;2022-10-16T07:02:33;6.83;;;4.70;;
46931;SDS011;32670;51.464;11.964;2022-10-16T07:04:59;7.70;;;6.07;;
46931;SDS011;32670;51.464;11.964;2022-10-16T07:07:24;6.40;;;5.80;;
46931;SDS011;32670;51.464;11.964;2022-10-16T07:09:51;6.20;;;5.60;;
46931;SDS011;32670;51.464;11.964;2022-10-16T07:12:17;7.10;;;6.40;;
46931;SDS011;32670;51.464;11.964;2022-10-16T07:14:42;8.13;;;7.33;;
46931;SDS011;32670;51.464;11.964;2022-10-16T07:17:08;8.37;;;7.57;;
46931;SDS011;32670;51.464;11.964;2022-10-16T07:19:34;8.97;;;8.17;;
46931;SDS011;32670;51.464;11.964;2022-10-16T07:21:59;9.70;;;8.80;;
46931;SDS011;32670;51.464;11.964;2022-10-16T07:24:25;9.87;;;8.97;;
46931;SDS011;32670;51.464;11.964;2022-10-16T07:26:51;10.37;;;9.43;;
46931;SDS011;32670;51.464;11.964;2022-10-16T07:29:20;10.77;;;9.77;;
46931;SDS011;32670;51.464;11.964;2022-10-16T07:31:47;8.97;;;8.17;;
46931;SDS011;32670;51.464;11.964;2022-10-16T07:34:14;8.60;;;7.83;;
46931;SDS011;32670;51.464;11.964;2022-10-16T07:36:41;10.47;;;9.37;;
46931;SDS011;32670;51.464;11.964;2022-10-16T07:39:06;10.27;;;9.33;;
46931;SDS011;32670;51.464;11.964;2022-10-16T07:41:32;10.23;;;9.33;;
46931;SDS011;32670;51.464;11.964;2022-10-16T07:44:01;10.03;;;9.13;;
46931;SDS011;32670;51.464;11.964;2022-10-16T07:46:27;12.47;;;11.20;;
46931;SDS011;32670;51.464;11.964;2022-10-16T07:48:54;11.57;;;10.30;;
46931;SDS011;32670;51.464;11.964;2022-10-16T07:51:20;12.33;;;10.97;;
46931;SDS011;32670;51.464;11.964;2022-10-16T07:53:47;14.73;;;13.33;;
46931;SDS011;32670;51.464;11.964;2022-10-16T07:56:13;13.73;;;12.43;;
46931;SDS011;32670;51.464;11.964;2022-10-16T07:58:39;15.00;;;13.23;;
46931;SDS011;32670;51.464;11.964;2022-10-16T08:01:05;14.13;;;12.83;;
46931;SDS011;32670;51.464;11.964;2022-10-16T08:03:32;15.30;;;13.93;;
46931;SDS011;32670;51.464;11.964;2022-10-16T08:05:58;12.30;;;11.10;;
46931;SDS011;32670;51.464;11.964;2022-10-16T08:08:24;12.77;;;11.50;;
46931;SDS011;32670;51.464;11.964;2022-10-16T08:10:50;14.47;;;12.97;;
46931;SDS011;32670;51.464;11.964;2022-10-16T08:13:15;17.27;;;15.67;;
46931;SDS011;32670;51.464;11.964;2022-10-16T08:15:44;20.27;;;18.27;;
46931;SDS011;32670;51.464;11.964;2022-10-16T08:18:10;20.43;;;18.33;;
46931;SDS011;32670;51.464;11.964;2022-10-16T08:20:37;19.40;;;17.50;;
46931;SDS011;32670;51.464;11.964;2022-10-16T08:23:03;19.07;;;17.07;;
46931;SDS011;32670;51.464;11.964;2022-10-16T08:25:29;18.17;;;16.27;;
46931;SDS011;32670;51.464;11.964;2022-10-16T08:27:55;18.10;;;15.23;;
46931;SDS011;32670;51.464;11.964;2022-10-16T08:30:21;16.07;;;14.57;;
46931;SDS011;32670;51.464;11.964;2022-10-16T08:32:48;16.77;;;15.13;;
46931;SDS011;32670;51.464;11.964;2022-10-16T08:35:14;21.03;;;18.70;;
46931;SDS011;32670;51.464;11.964;2022-10-16T08:37:40;21.10;;;18.90;;
46931;SDS011;32670;51.464;11.964;2022-10-16T08:40:07;22.57;;;20.23;;
46931;SDS011;32670;51.464;11.964;2022-10-16T08:45:21;21.70;;;19.50;;
46931;SDS011;32670;51.464;11.964;2022-10-16T08:48:27;23.53;;;21.03;;
46931;SDS011;32670;51.464;11.964;2022-10-16T08:51:01;21.73;;;19.50;;
46931;SDS011;32670;51.464;11.964;2022-10-16T08:53:31;22.40;;;20.10;;
46931;SDS011;32670;51.464;11.964;2022-10-16T08:56:11;22.27;;;20.17;;
46931;SDS011;32670;51.464;11.964;2022-10-16T08:58:37;23.00;;;20.70;;
46931;SDS011;32670;51.464;11.964;2022-10-16T09:01:03;24.20;;;21.73;;
46931;SDS011;32670;51.464;11.964;2022-10-16T09:06:09;26.30;;;23.50;;
46931;SDS011;32670;51.464;11.964;2022-10-16T09:13:59;24.10;;;21.73;;
46931;SDS011;32670;51.464;11.964;2022-10-16T09:16:37;21.90;;;19.70;;
46931;SDS011;32670;51.464;11.964;2022-10-16T09:19:21;23.77;;;21.20;;
46931;SDS011;32670;51.464;11.964;2022-10-16T09:21:56;22.70;;;20.50;;
46931;SDS011;32670;51.464;11.964;2022-10-16T09:24:25;23.33;;;20.73;;
46931;SDS011;32670;51.464;11.964;2022-10-16T09:26:51;23.70;;;21.30;;
46931;SDS011;32670;51.464;11.964;2022-10-16T09:29:18;24.97;;;22.63;;
46931;SDS011;32670;51.464;11.964;2022-10-16T09:31:45;24.73;;;22.33;;
46931;SDS011;32670;51.464;11.964;2022-10-16T09:34:17;25.23;;;22.53;;
46931;SDS011;32670;51.464;11.964;2022-10-16T09:37:09;32.43;;;29.23;;
46931;SDS011;32670;51.464;11.964;2022-10-16T09:39:44;31.13;;;27.87;;
46931;SDS011;32670;51.464;11.964;2022-10-16T09:42:17;30.43;;;27.43;;
46931;SDS011;32670;51.464;11.964;2022-10-16T09:44:51;31.10;;;27.73;;
46931;SDS011;32670;51.464;11.964;2022-10-16T09:47:20;28.40;;;25.53;;
46931;SDS011;32670;51.464;11.964;2022-10-16T09:49:56;30.47;;;27.57;;
46931;SDS011;32670;51.464;11.964;2022-10-16T09:52:26;5.20;;;4.70;;
46931;SDS011;32670;51.464;11.964;2022-10-16T09:54:52;5.93;;;4.83;;
46931;SDS011;32670;51.464;11.964;2022-10-16T09:57:19;3.77;;;3.47;;
46931;SDS011;32670;51.464;11.964;2022-10-16T09:59:49;3.93;;;2.10;;
46931;SDS011;32670;51.464;11.964;2022-10-16T10:02:17;3.17;;;2.47;;
46931;SDS011;32670;51.464;11.964;2022-10-16T10:04:49;3.73;;;3.43;;
46931;SDS011;32670;51.464;11.964;2022-10-16T10:10:27;4.93;;;4.07;;
46931;SDS011;32670;51.464;11.964;2022-10-16T10:12:55;11.53;;;9.10;;
46931;SDS011;32670;51.464;11.964;2022-10-16T10:15:21;10.80;;;9.80;;
46931;SDS011;32670;51.464;11.964;2022-10-16T10:17:52;10.63;;;9.53;;
46931;SDS011;32670;51.464;11.964;2022-10-16T10:20:35;11.13;;;9.60;;
46931;SDS011;32670;51.464;11.964;2022-10-16T10:23:20;10.37;;;9.37;;
46931;SDS011;32670;51.464;11.964;2022-10-16T10:25:56;9.77;;;8.83;;
46931;SDS011;32670;51.464;11.964;2022-10-16T10:31:26;9.40;;;8.60;;
46931;SDS011;32670;51.464;11.964;2022-10-16T10:34:19;9.93;;;9.03;;
46931;SDS011;32670;51.464;11.964;2022-10-16T10:37:31;11.73;;;10.53;;
46931;SDS011;32670;51.464;11.964;2022-10-16T10:40:30;11.40;;;9.93;;
46931;SDS011;32670;51.464;11.964;2022-10-16T10:43:19;13.50;;;12.10;;
46931;SDS011;32670;51.464;11.964;2022-10-16T10:45:50;13.73;;;12.47;;
46931;SDS011;32670;51.464;11.964;2022-10-16T10:48:31;13.17;;;11.87;;
46931;SDS011;32670;51.464;11.964;2022-10-16T10:51:08;12.67;;;11.37;;
46931;SDS011;32670;51.464;11.964;2022-10-16T10:56:50;12.87;;;11.57;;
46931;SDS011;32670;51.464;11.964;2022-10-16T10:59:27;11.93;;;10.73;;
46931;SDS011;32670;51.464;11.964;2022-10-16T11:04:49;12.93;;;11.63;;
46931;SDS011;32670;51.464;11.964;2022-10-16T11:07:34;13.30;;;12.00;;
46931;SDS011;32670;51.464;11.964;2022-10-16T11:10:57;15.10;;;13.60;;
46931;SDS011;32670;51.464;11.964;2022-10-16T11:13:17;14.47;;;12.97;;
46931;SDS011;32670;51.464;11.964;2022-10-16T11:16:13;14.33;;;12.83;;
46931;SDS011;32670;51.464;11.964;2022-10-16T11:21:13;15.10;;;13.60;;
46931;SDS011;32670;51.464;11.964;2022-10-16T11:23:51;16.40;;;14.80;;
46931;SDS011;32670;51.464;11.964;2022-10-16T11:26:32;16.70;;;14.90;;
46931;SDS011;32670;51.464;11.964;2022-10-16T11:29:00;17.23;;;15.67;;
46931;SDS011;32670;51.464;11.964;2022-10-16T11:31:42;17.63;;;15.93;;
46931;SDS011;32670;51.464;11.964;2022-10-16T11:34:17;17.60;;;15.87;;
46931;SDS011;32670;51.464;11.964;2022-10-16T11:37:02;19.17;;;17.27;;
46931;SDS011;32670;51.464;11.964;2022-10-16T11:39:39;20.37;;;18.37;;
46931;SDS011;32670;51.464;11.964;2022-10-16T11:42:10;21.53;;;19.43;;
46931;SDS011;32670;51.464;11.964;2022-10-16T11:44:55;21.13;;;18.93;;
46931;SDS011;32670;51.464;11.964;2022-10-16T11:47:38;28.00;;;25.33;;
46931;SDS011;32670;51.464;11.964;2022-10-16T11:55:34;27.43;;;24.83;;
46931;SDS011;32670;51.464;11.964;2022-10-16T11:58:05;32.23;;;29.13;;
46931;SDS011;32670;51.464;11.964;2022-10-16T12:00:44;29.37;;;26.37;;
46931;SDS011;32670;51.464;11.964;2022-10-16T12:08:19;28.07;;;25.03;;
46931;SDS011;32670;51.464;11.964;2022-10-16T12:10:45;27.77;;;25.07;;
46931;SDS011;32670;51.464;11.964;2022-10-16T12:13:28;29.20;;;25.87;;
46931;SDS011;32670;51.464;11.964;2022-10-16T12:18:39;31.60;;;28.40;;
46931;SDS011;32670;51.464;11.964;2022-10-16T12:21:06;30.30;;;27.17;;
46931;SDS011;32670;51.464;11.964;2022-10-16T12:23:33;30.67;;;27.47;;
46931;SDS011;32670;51.464;11.964;2022-10-16T12:26:03;30.97;;;27.83;;
46931;SDS011;32670;51.464;11.964;2022-10-16T12:28:30;32.57;;;29.27;;
46931;SDS011;32670;51.464;11.964;2022-10-16T12:31:04;32.03;;;28.77;;
46931;SDS011;32670;51.464;11.964;2022-10-16T12:33:34;32.00;;;28.60;;
46931;SDS011;32670;51.464;11.964;2022-10-16T12:36:26;31.90;;;28.67;;
46931;SDS011;32670;51.464;11.964;2022-10-16T12:38:54;32.60;;;29.43;;
46931;SDS011;32670;51.464;11.964;2022-10-16T12:41:24;33.80;;;30.50;;
46931;SDS011;32670;51.464;11.964;2022-10-16T12:43:50;35.83;;;32.13;;
46931;SDS011;32670;51.464;11.964;2022-10-16T12:48:42;33.57;;;30.13;;
46931;SDS011;32670;51.464;11.964;2022-10-16T12:51:51;31.97;;;28.83;;
46931;SDS011;32670;51.464;11.964;2022-10-16T12:54:03;33.53;;;30.07;;
46931;SDS011;32670;51.464;11.964;2022-10-16T12:56:40;34.13;;;30.60;;
46931;SDS011;32670;51.464;11.964;2022-10-16T13:02:18;34.10;;;30.67;;
46931;SDS011;32670;51.464;11.964;2022-10-16T13:08:22;35.93;;;32.37;;
46931;SDS011;32670;51.464;11.964;2022-10-16T13:10:57;34.30;;;30.70;;
46931;SDS011;32670;51.464;11.964;2022-10-16T13:16:25;35.90;;;32.30;;
46931;SDS011;32670;51.464;11.964;2022-10-16T13:19:10;34.13;;;30.63;;
46931;SDS011;32670;51.464;11.964;2022-10-16T13:30:20;21.87;;;19.67;;
46931;SDS011;32670;51.464;11.964;2022-10-16T13:32:53;20.13;;;18.03;;
46931;SDS011;32670;51.464;11.964;2022-10-16T13:35:30;17.13;;;15.43;;
46931;SDS011;32670;51.464;11.964;2022-10-16T13:38:14;16.57;;;14.97;;
46931;SDS011;32670;51.464;11.964;2022-10-16T13:46:01;13.27;;;11.93;;
46931;SDS011;32670;51.464;11.964;2022-10-16T13:48:29;11.97;;;10.87;;
46931;SDS011;32670;51.464;11.964;2022-10-16T13:50:59;11.57;;;10.47;;
46931;SDS011;32670;51.464;11.964;2022-10-16T13:53:30;10.60;;;9.60;;
46931;SDS011;32670;51.464;11.964;2022-10-16T13:55:57;8.70;;;7.87;;
46931;SDS011;32670;51.464;11.964;2022-10-16T13:58:22;8.57;;;7.73;;
46931;SDS011;32670;51.464;11.964;2022-10-16T14:01:04;8.60;;;7.70;;
46931;SDS011;32670;51.464;11.964;2022-10-16T14:03:37;7.83;;;7.13;;
46931;SDS011;32670;51.464;11.964;2022-10-16T14:06:03;8.77;;;7.33;;
46931;SDS011;32670;51.464;11.964;2022-10-16T14:08:33;7.77;;;7.00;;
46931;SDS011;32670;51.464;11.964;2022-10-16T14:10:59;7.97;;;6.70;;
46931;SDS011;32670;51.464;11.964;2022-10-16T14:13:29;11.73;;;6.43;;
46931;SDS011;32670;51.464;11.964;2022-10-16T14:16:16;7.10;;;6.40;;
46931;SDS011;32670;51.464;11.964;2022-10-16T14:18:50;5.77;;;5.17;;
46931;SDS011;32670;51.464;11.964;2022-10-16T14:21:28;5.23;;;4.77;;
46931;SDS011;32670;51.464;11.964;2022-10-16T14:23:54;6.33;;;5.73;;
46931;SDS011;32670;51.464;11.964;2022-10-16T14:26:22;5.87;;;4.97;;
46931;SDS011;32670;51.464;11.964;2022-10-16T14:28:51;5.43;;;4.70;;
46931;SDS011;32670;51.464;11.964;2022-10-16T14:31:30;4.97;;;4.50;;
46931;SDS011;32670;51.464;11.964;2022-10-16T14:33:58;5.87;;;5.37;;
46931;SDS011;32670;51.464;11.964;2022-10-16T14:36:25;6.57;;;5.53;;
46931;SDS011;32670;51.464;11.964;2022-10-16T14:38:55;6.73;;;6.13;;
46931;SDS011;32670;51.464;11.964;2022-10-16T14:41:23;6.93;;;5.60;;
46931;SDS011;32670;51.464;11.964;2022-10-16T14:43:50;5.80;;;5.30;;
46931;SDS011;32670;51.464;11.964;2022-10-16T14:46:20;6.40;;;5.33;;
46931;SDS011;32670;51.464;11.964;2022-10-16T14:48:51;4.80;;;4.40;;
46931;SDS011;32670;51.464;11.964;2022-10-16T14:51:21;6.03;;;5.37;;
46931;SDS011;32670;51.464;11.964;2022-10-16T14:53:47;6.70;;;6.00;;
46931;SDS011;32670;51.464;11.964;2022-10-16T14:56:17;7.37;;;6.63;;
46931;SDS011;32670;51.464;11.964;2022-10-16T14:58:44;10.87;;;8.83;;
46931;SDS011;32670;51.464;11.964;2022-10-16T15:01:10;9.67;;;8.37;;
46931;SDS011;32670;51.464;11.964;2022-10-16T15:03:36;11.67;;;9.47;;
46931;SDS011;32670;51.464;11.964;2022-10-16T15:06:02;9.37;;;8.47;;
46931;SDS011;32670;51.464;11.964;2022-10-16T15:08:28;11.17;;;10.07;;
46931;SDS011;32670;51.464;11.964;2022-10-16T15:10:54;10.70;;;9.70;;
46931;SDS011;32670;51.464;11.964;2022-10-16T15:13:19;10.60;;;9.60;;
46931;SDS011;32670;51.464;11.964;2022-10-16T15:15:45;11.10;;;10.10;;
46931;SDS011;32670;51.464;11.964;2022-10-16T15:18:12;11.60;;;10.50;;
46931;SDS011;32670;51.464;11.964;2022-10-16T15:20:40;10.53;;;9.53;;
46931;SDS011;32670;51.464;11.964;2022-10-16T15:23:09;9.30;;;8.50;;
46931;SDS011;32670;51.464;11.964;2022-10-16T15:25:40;9.73;;;8.83;;
46931;SDS011;32670;51.464;11.964;2022-10-16T15:28:08;10.43;;;9.43;;
46931;SDS011;32670;51.464;11.964;2022-10-16T15:30:35;11.00;;;9.97;;
46931;SDS011;32670;51.464;11.964;2022-10-16T15:33:02;10.40;;;9.40;;
46931;SDS011;32670;51.464;11.964;2022-10-16T15:35:28;10.57;;;9.57;;
46931;SDS011;32670;51.464;11.964;2022-10-16T15:37:53;12.03;;;10.80;;
46931;SDS011;32670;51.464;11.964;2022-10-16T15:40:20;12.53;;;11.33;;
46931;SDS011;32670;51.464;11.964;2022-10-16T15:42:46;15.07;;;13.13;;
46931;SDS011;32670;51.464;11.964;2022-10-16T15:45:12;14.77;;;13.37;;
46931;SDS011;32670;51.464;11.964;2022-10-16T15:47:38;15.60;;;14.00;;
46931;SDS011;32670;51.464;11.964;2022-10-16T15:50:05;14.93;;;12.97;;
46931;SDS011;32670;51.464;11.964;2022-10-16T15:52:31;15.27;;;13.77;;
46931;SDS011;32670;51.464;11.964;2022-10-16T15:54:57;16.30;;;14.67;;
46931;SDS011;32670;51.464;11.964;2022-10-16T15:57:23;16.30;;;14.60;;
46931;SDS011;32670;51.464;11.964;2022-10-16T15:59:49;16.43;;;14.83;;
46931;SDS011;32670;51.464;11.964;2022-10-16T16:02:15;17.93;;;15.97;;
46931;SDS011;32670;51.464;11.964;2022-10-16T16:04:41;15.50;;;14.00;;